createdAt,value
2022-12-18T00:01:28.642Z,18.25
2022-12-18T00:03:56.752Z,17.75
2022-12-18T00:06:26.805Z,17.85
2022-12-18T00:08:55.337Z,17.58
2022-12-18T00:11:25.046Z,17.60
2022-12-18T00:13:54.359Z,17.35
2022-12-18T00:16:23.233Z,17.30
2022-12-18T00:18:53.097Z,16.33
2022-12-18T00:21:21.267Z,15.75
2022-12-18T00:23:49.936Z,16.90
2022-12-18T00:26:24.108Z,17.55
2022-12-18T00:28:56.728Z,16.88
2022-12-18T00:31:25.573Z,15.98
2022-12-18T00:33:58.749Z,17.20
2022-12-18T00:36:28.540Z,17.15
2022-12-18T00:38:57.540Z,17.00
2022-12-18T00:41:44.418Z,16.77
2022-12-18T00:44:17.015Z,15.90
2022-12-18T00:46:45.064Z,15.88
2022-12-18T00:49:17.532Z,15.93
2022-12-18T00:51:45.027Z,15.25
2022-12-18T00:54:13.349Z,14.93
2022-12-18T00:56:48.356Z,15.95
2022-12-18T00:59:18.428Z,15.05
2022-12-18T01:01:46.345Z,15.77
2022-12-18T01:04:14.729Z,14.45
2022-12-18T01:06:42.241Z,14.82
2022-12-18T01:09:09.684Z,14.18
2022-12-18T01:11:37.839Z,14.55
2022-12-18T01:14:06.046Z,14.68
2022-12-18T01:16:33.451Z,14.07
2022-12-18T01:19:00.938Z,14.32
2022-12-18T01:21:28.505Z,14.45
2022-12-18T01:23:56.994Z,14.25
2022-12-18T01:26:26.162Z,14.75
2022-12-18T01:28:55.505Z,14.32
2022-12-18T01:31:26.894Z,13.90
2022-12-18T01:33:56.722Z,14.50
2022-12-18T01:36:27.309Z,13.70
2022-12-18T01:38:55.057Z,14.00
2022-12-18T01:41:26.847Z,14.13
2022-12-18T01:43:58.636Z,13.87
2022-12-18T01:46:27.440Z,13.98
2022-12-18T01:49:00.406Z,14.05
2022-12-18T01:51:30.560Z,13.48
2022-12-18T01:54:00.292Z,13.20
2022-12-18T01:56:28.124Z,13.52
2022-12-18T01:59:03.289Z,14.18
2022-12-18T02:01:32.258Z,13.80
2022-12-18T02:04:35.074Z,13.77
2022-12-18T02:07:15.719Z,13.25
2022-12-18T02:09:52.192Z,14.07
2022-12-18T02:12:22.799Z,13.90
2022-12-18T02:15:09.520Z,13.60
2022-12-18T02:17:53.122Z,13.20
2022-12-18T02:20:37.290Z,13.57
2022-12-18T02:23:13.739Z,12.50
2022-12-18T02:26:34.537Z,13.40
2022-12-18T02:29:06.963Z,14.02
2022-12-18T02:31:51.756Z,12.90
2022-12-18T02:34:20.871Z,12.30
2022-12-18T02:36:50.781Z,12.95
2022-12-18T02:39:21.238Z,11.98
2022-12-18T02:42:00.456Z,12.00
2022-12-18T02:44:27.968Z,12.95
2022-12-18T02:46:55.896Z,13.52
2022-12-18T02:49:29.307Z,12.52
2022-12-18T02:52:19.716Z,12.30
2022-12-18T02:54:53.607Z,12.50
2022-12-18T02:57:45.689Z,12.30
2022-12-18T03:00:18.143Z,12.05
2022-12-18T03:03:07.293Z,12.13
2022-12-18T03:05:51.324Z,11.75
2022-12-18T03:08:31.842Z,11.63
2022-12-18T03:11:09.990Z,10.98
2022-12-18T03:13:52.044Z,10.95
2022-12-18T03:16:26.991Z,11.30
2022-12-18T03:19:02.157Z,10.47
2022-12-18T03:21:36.543Z,10.57
2022-12-18T03:24:08.801Z,9.98
2022-12-18T03:26:41.176Z,9.95
2022-12-18T03:29:21.934Z,9.25
2022-12-18T03:31:55.794Z,9.43
2022-12-18T03:34:31.872Z,9.02
2022-12-18T03:37:06.012Z,9.30
2022-12-18T03:39:36.188Z,8.75
2022-12-18T03:42:10.636Z,8.65
2022-12-18T03:44:53.284Z,8.67
2022-12-18T03:47:33.088Z,8.13
2022-12-18T03:50:50.378Z,8.60
2022-12-18T03:53:41.813Z,7.70
2022-12-18T03:56:10.894Z,8.13
2022-12-18T03:58:42.882Z,7.30
2022-12-18T04:01:35.116Z,7.47
2022-12-18T04:04:04.701Z,7.45
2022-12-18T04:06:35.980Z,7.13
2022-12-18T04:09:04.950Z,7.63
2022-12-18T04:11:35.788Z,7.18
2022-12-18T04:14:07.431Z,7.25
2022-12-18T04:16:35.688Z,6.90
2022-12-18T04:19:05.429Z,7.03
2022-12-18T04:21:39.047Z,6.72
2022-12-18T04:24:07.449Z,6.88
2022-12-18T04:26:36.778Z,6.65
2022-12-18T04:29:19.077Z,6.63
2022-12-18T04:31:46.784Z,6.80
2022-12-18T04:34:14.455Z,6.47
2022-12-18T04:36:49.006Z,6.82
2022-12-18T04:39:19.911Z,6.80
2022-12-18T04:41:51.224Z,6.57
2022-12-18T04:44:19.071Z,6.50
2022-12-18T04:46:46.450Z,7.13
2022-12-18T04:49:13.975Z,6.50
2022-12-18T04:51:41.336Z,6.57
2022-12-18T04:54:08.727Z,6.78
2022-12-18T04:56:36.095Z,6.60
2022-12-18T04:59:03.465Z,6.38
2022-12-18T05:01:34.477Z,6.28
2022-12-18T05:04:03.047Z,6.90
2022-12-18T05:06:30.510Z,6.30
2022-12-18T05:08:58.014Z,6.28
2022-12-18T05:11:25.367Z,6.23
2022-12-18T05:13:52.696Z,6.27
2022-12-18T05:16:20.118Z,6.40
2022-12-18T05:18:47.459Z,6.80
2022-12-18T05:21:14.830Z,5.97
2022-12-18T05:23:42.737Z,5.82
2022-12-18T05:26:14.745Z,5.88
2022-12-18T05:28:42.146Z,6.00
2022-12-18T05:31:09.505Z,5.70
2022-12-18T05:33:37.276Z,6.10
2022-12-18T05:36:09.216Z,5.80
2022-12-18T05:38:39.135Z,6.35
2022-12-18T05:41:07.911Z,6.30
2022-12-18T05:43:37.491Z,6.20
2022-12-18T05:46:12.046Z,5.97
2022-12-18T05:48:39.418Z,5.97
2022-12-18T05:51:18.638Z,6.40
2022-12-18T05:53:46.169Z,6.10
2022-12-18T05:56:16.880Z,6.13
2022-12-18T05:58:45.022Z,6.07
2022-12-18T06:01:21.712Z,5.80
2022-12-18T06:03:50.502Z,5.90
2022-12-18T06:06:20.817Z,5.97
2022-12-18T06:08:48.409Z,6.35
2022-12-18T06:11:19.409Z,5.87
